sensor_id;sensor_type;location;lat;lon;timestamp;P1;durP1;ratioP1;P2;durP2;ratioP2
51491;SDS011;37569;50.548;8.778;2022-12-18T00:00:11;40.4;;;17.8;;
51491;SDS011;37569;50.548;8.778;2022-12-18T00:05:11;41.8;;;17.7;;
51491;SDS011;37569;50.548;8.778;2022-12-18T00:10:10;40.9;;;16.6;;
51491;SDS011;37569;50.548;8.778;2022-12-18T00:15:10;33.6;;;14;;
51491;SDS011;37569;50.548;8.778;2022-12-18T00:20:10;28.8;;;13.1;;
51491;SDS011;37569;50.548;8.778;2022-12-18T00:25:09;33;;;13.5;;
51491;SDS011;37569;50.548;8.778;2022-12-18T00:30:09;30.1;;;13;;
51491;SDS011;37569;50.548;8.778;2022-12-18T00:35:09;33.2;;;13.8;;
51491;SDS011;37569;50.548;8.778;2022-12-18T00:40:09;33.7;;;14.3;;
51491;SDS011;37569;50.548;8.778;2022-12-18T00:45:08;32.6;;;13.3;;
51491;SDS011;37569;50.548;8.778;2022-12-18T00:50:08;34.8;;;13.7;;
51491;SDS011;37569;50.548;8.778;2022-12-18T00:55:07;32.9;;;13.3;;
51491;SDS011;37569;50.548;8.778;2022-12-18T01:00:08;33.6;;;14.2;;
51491;SDS011;37569;50.548;8.778;2022-12-18T01:05:07;31.4;;;13.8;;
51491;SDS011;37569;50.548;8.778;2022-12-18T01:10:07;30.8;;;13.2;;
51491;SDS011;37569;50.548;8.778;2022-12-18T01:15:06;30.3;;;13.2;;
51491;SDS011;37569;50.548;8.778;2022-12-18T01:20:06;29.5;;;13.2;;
51491;SDS011;37569;50.548;8.778;2022-12-18T01:25:05;30.9;;;13.3;;
51491;SDS011;37569;50.548;8.778;2022-12-18T01:30:05;29.4;;;13.2;;
51491;SDS011;37569;50.548;8.778;2022-12-18T01:35:05;33.7;;;13.2;;
51491;SDS011;37569;50.548;8.778;2022-12-18T01:40:04;32.4;;;14.3;;
51491;SDS011;37569;50.548;8.778;2022-12-18T01:45:05;30.5;;;13;;
51491;SDS011;37569;50.548;8.778;2022-12-18T01:50:05;31;;;13;;
51491;SDS011;37569;50.548;8.778;2022-12-18T01:55:04;27.3;;;12.8;;
51491;SDS011;37569;50.548;8.778;2022-12-18T02:00:05;29.2;;;12.6;;
51491;SDS011;37569;50.548;8.778;2022-12-18T02:05:03;29.7;;;12.9;;
51491;SDS011;37569;50.548;8.778;2022-12-18T02:10:03;29.9;;;12.2;;
51491;SDS011;37569;50.548;8.778;2022-12-18T02:15:05;31;;;12.7;;
51491;SDS011;37569;50.548;8.778;2022-12-18T02:20:04;28.1;;;12.4;;
51491;SDS011;37569;50.548;8.778;2022-12-18T02:25:05;30.2;;;13.2;;
51491;SDS011;37569;50.548;8.778;2022-12-18T02:30:01;31.2;;;13.6;;
51491;SDS011;37569;50.548;8.778;2022-12-18T02:35:01;28.5;;;12.8;;
51491;SDS011;37569;50.548;8.778;2022-12-18T02:40:00;29.8;;;12.9;;
51491;SDS011;37569;50.548;8.778;2022-12-18T02:45:00;34.2;;;13.6;;
51491;SDS011;37569;50.548;8.778;2022-12-18T02:50:02;32.8;;;14.5;;
51491;SDS011;37569;50.548;8.778;2022-12-18T02:55:00;31.6;;;13.7;;
51491;SDS011;37569;50.548;8.778;2022-12-18T03:00:00;28;;;12.4;;
51491;SDS011;37569;50.548;8.778;2022-12-18T03:05:00;33.2;;;13.8;;
51491;SDS011;37569;50.548;8.778;2022-12-18T03:09:58;31.1;;;13.1;;
51491;SDS011;37569;50.548;8.778;2022-12-18T03:14:58;29.6;;;12.3;;
51491;SDS011;37569;50.548;8.778;2022-12-18T03:19:58;28.5;;;12.5;;
51491;SDS011;37569;50.548;8.778;2022-12-18T03:24:57;29.1;;;13;;
51491;SDS011;37569;50.548;8.778;2022-12-18T03:29:59;28.6;;;13;;
51491;SDS011;37569;50.548;8.778;2022-12-18T03:34:57;28.1;;;11.9;;
51491;SDS011;37569;50.548;8.778;2022-12-18T03:39:56;29.4;;;12.7;;
51491;SDS011;37569;50.548;8.778;2022-12-18T03:44:57;28.4;;;12.9;;
51491;SDS011;37569;50.548;8.778;2022-12-18T03:49:56;27.6;;;12.1;;
51491;SDS011;37569;50.548;8.778;2022-12-18T03:54:55;30.9;;;12.1;;
51491;SDS011;37569;50.548;8.778;2022-12-18T03:59:55;27.6;;;12;;
51491;SDS011;37569;50.548;8.778;2022-12-18T04:04:55;26.7;;;11.2;;
51491;SDS011;37569;50.548;8.778;2022-12-18T04:09:54;27.2;;;11;;
51491;SDS011;37569;50.548;8.778;2022-12-18T04:14:53;26.7;;;12.2;;
51491;SDS011;37569;50.548;8.778;2022-12-18T04:19:53;31.6;;;12.6;;
51491;SDS011;37569;50.548;8.778;2022-12-18T04:24:52;31.7;;;12.4;;
51491;SDS011;37569;50.548;8.778;2022-12-18T04:29:52;29;;;11.8;;
51491;SDS011;37569;50.548;8.778;2022-12-18T04:34:52;29;;;12.7;;
51491;SDS011;37569;50.548;8.778;2022-12-18T04:39:51;28.2;;;12.3;;
51491;SDS011;37569;50.548;8.778;2022-12-18T04:44:51;27.7;;;12.7;;
51491;SDS011;37569;50.548;8.778;2022-12-18T04:49:50;29.3;;;11.7;;
51491;SDS011;37569;50.548;8.778;2022-12-18T04:54:50;26.9;;;12.8;;
51491;SDS011;37569;50.548;8.778;2022-12-18T04:59:50;25.8;;;11.8;;
51491;SDS011;37569;50.548;8.778;2022-12-18T05:04:49;25.6;;;12;;
51491;SDS011;37569;50.548;8.778;2022-12-18T05:09:49;41.9;;;19.5;;
51491;SDS011;37569;50.548;8.778;2022-12-18T05:14:49;28.8;;;12.2;;
51491;SDS011;37569;50.548;8.778;2022-12-18T05:19:48;29.1;;;12.5;;
51491;SDS011;37569;50.548;8.778;2022-12-18T05:24:48;31.2;;;13;;
51491;SDS011;37569;50.548;8.778;2022-12-18T05:29:47;34.2;;;14.9;;
51491;SDS011;37569;50.548;8.778;2022-12-18T05:34:47;31.6;;;14.2;;
51491;SDS011;37569;50.548;8.778;2022-12-18T05:39:47;32.4;;;14.2;;
51491;SDS011;37569;50.548;8.778;2022-12-18T05:44:46;31.5;;;13.3;;
51491;SDS011;37569;50.548;8.778;2022-12-18T05:49:46;25.6;;;11.4;;
51491;SDS011;37569;50.548;8.778;2022-12-18T05:54:46;28.9;;;12.7;;
51491;SDS011;37569;50.548;8.778;2022-12-18T05:59:45;30.3;;;12.5;;
51491;SDS011;37569;50.548;8.778;2022-12-18T06:04:45;28.5;;;12.5;;
51491;SDS011;37569;50.548;8.778;2022-12-18T06:09:44;27.8;;;12.1;;
51491;SDS011;37569;50.548;8.778;2022-12-18T06:14:44;24.4;;;12;;
51491;SDS011;37569;50.548;8.778;2022-12-18T06:19:44;26;;;11.8;;
51491;SDS011;37569;50.548;8.778;2022-12-18T06:24:43;31.7;;;13.1;;
51491;SDS011;37569;50.548;8.778;2022-12-18T06:29:43;31.1;;;14.2;;
51491;SDS011;37569;50.548;8.778;2022-12-18T06:34:42;30.5;;;14.9;;
51491;SDS011;37569;50.548;8.778;2022-12-18T06:39:42;30.7;;;14.5;;
51491;SDS011;37569;50.548;8.778;2022-12-18T06:44:41;31.4;;;14.3;;
51491;SDS011;37569;50.548;8.778;2022-12-18T06:49:41;30.6;;;13.9;;
51491;SDS011;37569;50.548;8.778;2022-12-18T06:54:41;31.3;;;14.1;;
51491;SDS011;37569;50.548;8.778;2022-12-18T06:59:40;27.8;;;14;;
51491;SDS011;37569;50.548;8.778;2022-12-18T07:04:40;30.3;;;13.9;;
51491;SDS011;37569;50.548;8.778;2022-12-18T07:09:40;25.5;;;12;;
51491;SDS011;37569;50.548;8.778;2022-12-18T07:14:39;32.6;;;14.2;;
51491;SDS011;37569;50.548;8.778;2022-12-18T07:19:39;27.2;;;13.6;;
51491;SDS011;37569;50.548;8.778;2022-12-18T07:24:39;23.8;;;12.1;;
51491;SDS011;37569;50.548;8.778;2022-12-18T07:29:38;23.2;;;11.7;;
51491;SDS011;37569;50.548;8.778;2022-12-18T07:34:38;24.4;;;12.2;;
51491;SDS011;37569;50.548;8.778;2022-12-18T07:39:37;24.8;;;12.6;;
51491;SDS011;37569;50.548;8.778;2022-12-18T07:44:37;24.2;;;12.1;;
51491;SDS011;37569;50.548;8.778;2022-12-18T07:49:37;24.4;;;13.2;;
51491;SDS011;37569;50.548;8.778;2022-12-18T07:54:36;39.3;;;18.5;;
51491;SDS011;37569;50.548;8.778;2022-12-18T07:59:36;43.1;;;18.7;;
51491;SDS011;37569;50.548;8.778;2022-12-18T08:04:36;48;;;21.3;;
51491;SDS011;37569;50.548;8.778;2022-12-18T08:09:35;46.9;;;22.4;;
51491;SDS011;37569;50.548;8.778;2022-12-18T08:14:35;45;;;21.7;;
51491;SDS011;37569;50.548;8.778;2022-12-18T08:19:35;54.7;;;24.8;;
51491;SDS011;37569;50.548;8.778;2022-12-18T08:24:34;56.9;;;27;;
51491;SDS011;37569;50.548;8.778;2022-12-18T08:29:34;54.2;;;28;;
51491;SDS011;37569;50.548;8.778;2022-12-18T08:34:34;46.3;;;25;;
51491;SDS011;37569;50.548;8.778;2022-12-18T08:39:33;40.8;;;21.7;;
51491;SDS011;37569;50.548;8.778;2022-12-18T08:44:33;38;;;19.6;;
51491;SDS011;37569;50.548;8.778;2022-12-18T08:49:33;38.2;;;20.5;;
51491;SDS011;37569;50.548;8.778;2022-12-18T08:54:32;41.5;;;21.4;;
51491;SDS011;37569;50.548;8.778;2022-12-18T08:59:34;45.9;;;23;;
51491;SDS011;37569;50.548;8.778;2022-12-18T09:04:32;41.2;;;20.3;;
51491;SDS011;37569;50.548;8.778;2022-12-18T09:09:31;37.1;;;19.9;;
51491;SDS011;37569;50.548;8.778;2022-12-18T09:14:31;42.4;;;22.3;;
51491;SDS011;37569;50.548;8.778;2022-12-18T09:19:31;44.1;;;22.1;;
51491;SDS011;37569;50.548;8.778;2022-12-18T09:24:31;39.4;;;21.8;;
51491;SDS011;37569;50.548;8.778;2022-12-18T09:29:31;36.6;;;18.5;;
51491;SDS011;37569;50.548;8.778;2022-12-18T09:34:30;34.3;;;17.5;;
51491;SDS011;37569;50.548;8.778;2022-12-18T09:39:30;24.7;;;12.8;;
51491;SDS011;37569;50.548;8.778;2022-12-18T09:44:30;37.7;;;18.6;;
51491;SDS011;37569;50.548;8.778;2022-12-18T09:49:30;26;;;14.1;;
51491;SDS011;37569;50.548;8.778;2022-12-18T09:54:31;28.3;;;16.6;;
51491;SDS011;37569;50.548;8.778;2022-12-18T09:59:30;27.6;;;14.9;;
51491;SDS011;37569;50.548;8.778;2022-12-18T10:04:29;28;;;14.3;;
51491;SDS011;37569;50.548;8.778;2022-12-18T10:09:30;28.3;;;15.7;;
51491;SDS011;37569;50.548;8.778;2022-12-18T10:14:30;26.8;;;14.8;;
51491;SDS011;37569;50.548;8.778;2022-12-18T10:19:32;28.3;;;14.7;;
51491;SDS011;37569;50.548;8.778;2022-12-18T10:24:30;21.8;;;12.6;;
51491;SDS011;37569;50.548;8.778;2022-12-18T10:29:28;23.2;;;12.7;;
51491;SDS011;37569;50.548;8.778;2022-12-18T10:34:28;27.9;;;15;;
51491;SDS011;37569;50.548;8.778;2022-12-18T10:39:28;24.4;;;14.3;;
51491;SDS011;37569;50.548;8.778;2022-12-18T10:44:27;25.3;;;13.9;;
51491;SDS011;37569;50.548;8.778;2022-12-18T10:49:29;24.9;;;13.2;;
51491;SDS011;37569;50.548;8.778;2022-12-18T10:54:28;29.6;;;15.4;;
51491;SDS011;37569;50.548;8.778;2022-12-18T10:59:27;25.4;;;14.5;;
51491;SDS011;37569;50.548;8.778;2022-12-18T11:04:28;25.6;;;14.1;;
51491;SDS011;37569;50.548;8.778;2022-12-18T11:09:27;25.8;;;14.4;;
51491;SDS011;37569;50.548;8.778;2022-12-18T11:14:27;24.6;;;14.1;;
51491;SDS011;37569;50.548;8.778;2022-12-18T11:19:30;24.2;;;13.5;;
51491;SDS011;37569;50.548;8.778;2022-12-18T11:24:27;23.1;;;13.4;;
51491;SDS011;37569;50.548;8.778;2022-12-18T11:29:30;21.7;;;12.4;;
51491;SDS011;37569;50.548;8.778;2022-12-18T11:34:27;23.2;;;13.1;;
51491;SDS011;37569;50.548;8.778;2022-12-18T11:39:29;20.5;;;11.2;;
51491;SDS011;37569;50.548;8.778;2022-12-18T11:44:26;26.6;;;14.8;;
51491;SDS011;37569;50.548;8.778;2022-12-18T11:49:26;25.1;;;15;;
51491;SDS011;37569;50.548;8.778;2022-12-18T11:54:25;25.2;;;14.7;;
51491;SDS011;37569;50.548;8.778;2022-12-18T11:59:28;25.5;;;15.2;;
51491;SDS011;37569;50.548;8.778;2022-12-18T12:04:31;26.2;;;15.5;;
51491;SDS011;37569;50.548;8.778;2022-12-18T12:09:26;28.1;;;15.4;;
51491;SDS011;37569;50.548;8.778;2022-12-18T12:14:28;28.5;;;16.7;;
51491;SDS011;37569;50.548;8.778;2022-12-18T12:19:30;31.4;;;18.1;;
51491;SDS011;37569;50.548;8.778;2022-12-18T12:24:28;30.4;;;17.5;;
51491;SDS011;37569;50.548;8.778;2022-12-18T12:29:28;33;;;18.8;;
51491;SDS011;37569;50.548;8.778;2022-12-18T12:34:25;37.9;;;20.6;;
51491;SDS011;37569;50.548;8.778;2022-12-18T12:39:26;35;;;19.3;;
51491;SDS011;37569;50.548;8.778;2022-12-18T12:44:26;35.7;;;20.2;;
51491;SDS011;37569;50.548;8.778;2022-12-18T12:49:26;36.5;;;21;;
51491;SDS011;37569;50.548;8.778;2022-12-18T12:54:24;33.7;;;19.8;;
51491;SDS011;37569;50.548;8.778;2022-12-18T12:59:24;36.7;;;19.7;;
51491;SDS011;37569;50.548;8.778;2022-12-18T13:04:26;36.8;;;19.2;;
51491;SDS011;37569;50.548;8.778;2022-12-18T13:09:23;36;;;19.9;;
51491;SDS011;37569;50.548;8.778;2022-12-18T13:14:24;34.9;;;19.9;;
51491;SDS011;37569;50.548;8.778;2022-12-18T13:19:23;35;;;19;;
51491;SDS011;37569;50.548;8.778;2022-12-18T13:24:24;39.9;;;21.2;;
51491;SDS011;37569;50.548;8.778;2022-12-18T13:29:41;38.2;;;19.8;;
51491;SDS011;37569;50.548;8.778;2022-12-18T13:34:23;38.1;;;20.7;;
51491;SDS011;37569;50.548;8.778;2022-12-18T13:39:24;38.2;;;19.3;;
51491;SDS011;37569;50.548;8.778;2022-12-18T13:44:25;36.8;;;19.3;;
51491;SDS011;37569;50.548;8.778;2022-12-18T13:49:23;41.1;;;21.2;;
51491;SDS011;37569;50.548;8.778;2022-12-18T13:54:25;38.3;;;19.4;;
51491;SDS011;37569;50.548;8.778;2022-12-18T13:59:23;38.8;;;19.1;;
51491;SDS011;37569;50.548;8.778;2022-12-18T14:04:23;39.2;;;18.9;;
51491;SDS011;37569;50.548;8.778;2022-12-18T14:09:24;43.3;;;20.1;;
51491;SDS011;37569;50.548;8.778;2022-12-18T14:14:22;39.5;;;19.1;;
51491;SDS011;37569;50.548;8.778;2022-12-18T14:19:21;38.1;;;18.9;;
51491;SDS011;37569;50.548;8.778;2022-12-18T14:24:21;35.8;;;17.7;;
51491;SDS011;37569;50.548;8.778;2022-12-18T14:29:22;38.5;;;19.8;;
51491;SDS011;37569;50.548;8.778;2022-12-18T14:34:21;41.1;;;18.4;;
51491;SDS011;37569;50.548;8.778;2022-12-18T14:39:21;34.2;;;17.3;;
51491;SDS011;37569;50.548;8.778;2022-12-18T14:44:21;38.4;;;17.5;;
51491;SDS011;37569;50.548;8.778;2022-12-18T14:49:22;39.8;;;18.6;;
51491;SDS011;37569;50.548;8.778;2022-12-18T14:54:21;34.9;;;17.7;;
51491;SDS011;37569;50.548;8.778;2022-12-18T14:59:21;34.9;;;16.3;;
51491;SDS011;37569;50.548;8.778;2022-12-18T15:04:23;32.2;;;16.1;;
51491;SDS011;37569;50.548;8.778;2022-12-18T15:09:22;36.3;;;17.7;;
51491;SDS011;37569;50.548;8.778;2022-12-18T15:14:22;38.7;;;18;;
51491;SDS011;37569;50.548;8.778;2022-12-18T15:19:20;37.4;;;16.5;;
51491;SDS011;37569;50.548;8.778;2022-12-18T15:24:20;42;;;19.6;;
51491;SDS011;37569;50.548;8.778;2022-12-18T15:29:20;39.5;;;18.5;;
51491;SDS011;37569;50.548;8.778;2022-12-18T15:34:19;40.6;;;19.1;;
51491;SDS011;37569;50.548;8.778;2022-12-18T15:39:19;41.7;;;19.9;;
51491;SDS011;37569;50.548;8.778;2022-12-18T15:44:21;44.4;;;22.8;;
51491;SDS011;37569;50.548;8.778;2022-12-18T15:49:19;39.6;;;18;;
51491;SDS011;37569;50.548;8.778;2022-12-18T15:54:19;41.5;;;20.7;;
51491;SDS011;37569;50.548;8.778;2022-12-18T15:59:19;40.3;;;19.5;;
51491;SDS011;37569;50.548;8.778;2022-12-18T16:04:19;37.5;;;19.5;;
51491;SDS011;37569;50.548;8.778;2022-12-18T16:09:18;45.5;;;22.7;;
51491;SDS011;37569;50.548;8.778;2022-12-18T16:14:19;39.8;;;19.5;;
51491;SDS011;37569;50.548;8.778;2022-12-18T16:19:18;38.9;;;19.4;;
51491;SDS011;37569;50.548;8.778;2022-12-18T16:24:19;39.5;;;18.9;;
51491;SDS011;37569;50.548;8.778;2022-12-18T16:29:18;36.6;;;18.2;;
51491;SDS011;37569;50.548;8.778;2022-12-18T16:34:18;41;;;20.1;;
51491;SDS011;37569;50.548;8.778;2022-12-18T16:39:17;40.1;;;20.9;;
51491;SDS011;37569;50.548;8.778;2022-12-18T16:44:18;38.9;;;18.1;;
51491;SDS011;37569;50.548;8.778;2022-12-18T16:49:18;34.9;;;16.6;;
51491;SDS011;37569;50.548;8.778;2022-12-18T16:54:17;41.5;;;19.7;;
51491;SDS011;37569;50.548;8.778;2022-12-18T16:59:17;39.4;;;20.4;;
51491;SDS011;37569;50.548;8.778;2022-12-18T17:04:17;41.4;;;21;;
51491;SDS011;37569;50.548;8.778;2022-12-18T17:09:17;43.6;;;21.6;;
51491;SDS011;37569;50.548;8.778;2022-12-18T17:14:17;38.3;;;18.2;;
51491;SDS011;37569;50.548;8.778;2022-12-18T17:19:16;35.1;;;16.4;;
51491;SDS011;37569;50.548;8.778;2022-12-18T17:24:17;35.6;;;16.5;;
51491;SDS011;37569;50.548;8.778;2022-12-18T17:29:17;35.5;;;17.6;;
51491;SDS011;37569;50.548;8.778;2022-12-18T17:34:16;39.6;;;19.8;;
51491;SDS011;37569;50.548;8.778;2022-12-18T17:39:17;38.9;;;18.2;;
51491;SDS011;37569;50.548;8.778;2022-12-18T17:44:16;39.9;;;18.7;;
51491;SDS011;37569;50.548;8.778;2022-12-18T17:49:15;37.7;;;18.2;;
51491;SDS011;37569;50.548;8.778;2022-12-18T17:54:15;35.9;;;16.6;;
51491;SDS011;37569;50.548;8.778;2022-12-18T17:59:15;37.5;;;18.1;;
51491;SDS011;37569;50.548;8.778;2022-12-18T18:04:15;39.4;;;18.4;;
51491;SDS011;37569;50.548;8.778;2022-12-18T18:09:15;33.3;;;16.6;;
51491;SDS011;37569;50.548;8.778;2022-12-18T18:14:16;38.8;;;18.7;;
51491;SDS011;37569;50.548;8.778;2022-12-18T18:19:16;38.9;;;19;;
51491;SDS011;37569;50.548;8.778;2022-12-18T18:24:15;44.5;;;21.4;;
51491;SDS011;37569;50.548;8.778;2022-12-18T18:29:15;41.5;;;20.5;;
51491;SDS011;37569;50.548;8.778;2022-12-18T18:34:15;36.7;;;17.6;;
51491;SDS011;37569;50.548;8.778;2022-12-18T18:39:14;40.4;;;19;;
51491;SDS011;37569;50.548;8.778;2022-12-18T18:44:14;38.6;;;18.1;;
51491;SDS011;37569;50.548;8.778;2022-12-18T18:49:14;56;;;24.7;;
51491;SDS011;37569;50.548;8.778;2022-12-18T18:54:14;54;;;24.3;;
51491;SDS011;37569;50.548;8.778;2022-12-18T18:59:14;42.6;;;21.1;;
51491;SDS011;37569;50.548;8.778;2022-12-18T19:04:14;36.1;;;19.4;;
51491;SDS011;37569;50.548;8.778;2022-12-18T19:09:13;40.7;;;19.8;;
51491;SDS011;37569;50.548;8.778;2022-12-18T19:14:14;36.7;;;18.1;;
51491;SDS011;37569;50.548;8.778;2022-12-18T19:19:14;40.4;;;19.5;;
51491;SDS011;37569;50.548;8.778;2022-12-18T19:24:13;36.1;;;17.4;;
51491;SDS011;37569;50.548;8.778;2022-12-18T19:29:13;40.4;;;18;;
51491;SDS011;37569;50.548;8.778;2022-12-18T19:34:13;40.3;;;18.9;;
51491;SDS011;37569;50.548;8.778;2022-12-18T19:39:13;38.3;;;18.8;;
51491;SDS011;37569;50.548;8.778;2022-12-18T19:44:14;40.4;;;18.9;;
51491;SDS011;37569;50.548;8.778;2022-12-18T19:49:12;42.1;;;20.5;;
51491;SDS011;37569;50.548;8.778;2022-12-18T19:54:12;43.3;;;21.6;;
51491;SDS011;37569;50.548;8.778;2022-12-18T19:59:12;48.3;;;22.1;;
51491;SDS011;37569;50.548;8.778;2022-12-18T20:04:12;42.9;;;21.8;;
51491;SDS011;37569;50.548;8.778;2022-12-18T20:09:12;42.3;;;21;;
51491;SDS011;37569;50.548;8.778;2022-12-18T20:14:12;42;;;20.9;;
51491;SDS011;37569;50.548;8.778;2022-12-18T20:19:12;43.8;;;21.4;;
51491;SDS011;37569;50.548;8.778;2022-12-18T20:24:12;49.9;;;24;;
51491;SDS011;37569;50.548;8.778;2022-12-18T20:29:11;43.3;;;20.6;;
51491;SDS011;37569;50.548;8.778;2022-12-18T20:34:11;46.3;;;21.9;;
51491;SDS011;37569;50.548;8.778;2022-12-18T20:39:12;43.7;;;22.1;;
51491;SDS011;37569;50.548;8.778;2022-12-18T20:44:11;42;;;20.5;;
51491;SDS011;37569;50.548;8.778;2022-12-18T20:49:11;41.4;;;21.2;;
51491;SDS011;37569;50.548;8.778;2022-12-18T20:54:11;42.9;;;21;;
51491;SDS011;37569;50.548;8.778;2022-12-18T20:59:11;45.3;;;21.4;;
51491;SDS011;37569;50.548;8.778;2022-12-18T21:04:11;44.1;;;20.7;;
51491;SDS011;37569;50.548;8.778;2022-12-18T21:09:10;44.6;;;20.6;;
51491;SDS011;37569;50.548;8.778;2022-12-18T21:14:11;48.1;;;22.1;;
51491;SDS011;37569;50.548;8.778;2022-12-18T21:19:11;45.1;;;21.5;;
51491;SDS011;37569;50.548;8.778;2022-12-18T21:24:10;41.9;;;20.5;;
51491;SDS011;37569;50.548;8.778;2022-12-18T21:29:11;46.9;;;22.1;;
51491;SDS011;37569;50.548;8.778;2022-12-18T21:34:13;45;;;22.7;;
51491;SDS011;37569;50.548;8.778;2022-12-18T21:39:10;44.2;;;21.1;;
51491;SDS011;37569;50.548;8.778;2022-12-18T21:44:11;42.7;;;21.5;;
51491;SDS011;37569;50.548;8.778;2022-12-18T21:49:10;46.2;;;22.9;;
51491;SDS011;37569;50.548;8.778;2022-12-18T21:54:10;45.7;;;22.1;;
51491;SDS011;37569;50.548;8.778;2022-12-18T21:59:11;38.7;;;19.2;;
51491;SDS011;37569;50.548;8.778;2022-12-18T22:04:10;42.3;;;21.7;;
51491;SDS011;37569;50.548;8.778;2022-12-18T22:09:10;43;;;20.9;;
51491;SDS011;37569;50.548;8.778;2022-12-18T22:14:09;42.7;;;20.8;;
51491;SDS011;37569;50.548;8.778;2022-12-18T22:19:09;41.7;;;20.2;;
51491;SDS011;37569;50.548;8.778;2022-12-18T22:24:10;43.7;;;20.9;;
51491;SDS011;37569;50.548;8.778;2022-12-18T22:29:09;43.7;;;21.3;;
51491;SDS011;37569;50.548;8.778;2022-12-18T22:34:09;40.7;;;20.6;;
51491;SDS011;37569;50.548;8.778;2022-12-18T22:39:10;40.6;;;20.2;;
51491;SDS011;37569;50.548;8.778;2022-12-18T22:44:08;42.9;;;20.9;;
51491;SDS011;37569;50.548;8.778;2022-12-18T22:49:08;43.9;;;20.8;;
51491;SDS011;37569;50.548;8.778;2022-12-18T22:54:08;42.4;;;20.5;;
51491;SDS011;37569;50.548;8.778;2022-12-18T23:04:08;40.2;;;19.4;;
51491;SDS011;37569;50.548;8.778;2022-12-18T23:09:11;37.6;;;19.2;;
51491;SDS011;37569;50.548;8.778;2022-12-18T23:14:08;42.8;;;20.6;;
51491;SDS011;37569;50.548;8.778;2022-12-18T23:19:08;39.2;;;20.3;;
51491;SDS011;37569;50.548;8.778;2022-12-18T23:24:08;39.5;;;19.4;;
51491;SDS011;37569;50.548;8.778;2022-12-18T23:29:08;39.8;;;19.4;;
51491;SDS011;37569;50.548;8.778;2022-12-18T23:34:08;41.8;;;22;;
51491;SDS011;37569;50.548;8.778;2022-12-18T23:39:09;41;;;21.2;;
51491;SDS011;37569;50.548;8.778;2022-12-18T23:44:08;43.8;;;21.1;;
51491;SDS011;37569;50.548;8.778;2022-12-18T23:49:08;37.6;;;20.8;;
51491;SDS011;37569;50.548;8.778;2022-12-18T23:54:07;41.3;;;21.3;;
51491;SDS011;37569;50.548;8.778;2022-12-18T23:59:07;40.7;;;20.3;;
